sensor_id;sensor_type;location;lat;lon;timestamp;temperature;humidity
63313;DHT22;49442;45.640;13.812;2022-07-23T00:02:09;27.50;55.40
63313;DHT22;49442;45.640;13.812;2022-07-23T00:04:35;27.50;55.50
63313;DHT22;49442;45.640;13.812;2022-07-23T00:07:03;27.50;56.00
63313;DHT22;49442;45.640;13.812;2022-07-23T00:09:29;27.50;55.70
63313;DHT22;49442;45.640;13.812;2022-07-23T00:11:56;27.50;55.60
63313;DHT22;49442;45.640;13.812;2022-07-23T00:14:22;27.40;55.50
63313;DHT22;49442;45.640;13.812;2022-07-23T00:16:48;27.40;55.70
63313;DHT22;49442;45.640;13.812;2022-07-23T00:19:13;27.30;56.00
63313;DHT22;49442;45.640;13.812;2022-07-23T00:21:39;27.30;56.10
63313;DHT22;49442;45.640;13.812;2022-07-23T00:24:08;27.30;56.00
63313;DHT22;49442;45.640;13.812;2022-07-23T00:26:33;27.30;56.20
63313;DHT22;49442;45.640;13.812;2022-07-23T00:28:59;27.20;56.10
63313;DHT22;49442;45.640;13.812;2022-07-23T00:31:28;27.20;56.40
63313;DHT22;49442;45.640;13.812;2022-07-23T00:33:54;27.10;56.30
63313;DHT22;49442;45.640;13.812;2022-07-23T00:36:23;27.10;56.40
63313;DHT22;49442;45.640;13.812;2022-07-23T00:38:49;27.10;56.40
63313;DHT22;49442;45.640;13.812;2022-07-23T00:41:15;27.10;56.60
63313;DHT22;49442;45.640;13.812;2022-07-23T00:43:41;27.00;56.50
63313;DHT22;49442;45.640;13.812;2022-07-23T00:46:06;26.90;56.60
63313;DHT22;49442;45.640;13.812;2022-07-23T00:48:32;26.90;56.70
63313;DHT22;49442;45.640;13.812;2022-07-23T00:50:58;26.90;56.80
63313;DHT22;49442;45.640;13.812;2022-07-23T00:53:23;26.90;56.60
63313;DHT22;49442;45.640;13.812;2022-07-23T00:55:53;26.90;56.70
63313;DHT22;49442;45.640;13.812;2022-07-23T00:58:19;26.90;56.70
63313;DHT22;49442;45.640;13.812;2022-07-23T01:00:45;26.80;56.70
63313;DHT22;49442;45.640;13.812;2022-07-23T01:03:11;26.80;56.70
63313;DHT22;49442;45.640;13.812;2022-07-23T01:05:37;26.80;56.80
63313;DHT22;49442;45.640;13.812;2022-07-23T01:08:05;26.80;56.80
63313;DHT22;49442;45.640;13.812;2022-07-23T01:10:31;26.70;56.60
63313;DHT22;49442;45.640;13.812;2022-07-23T01:12:58;26.70;56.60
63313;DHT22;49442;45.640;13.812;2022-07-23T01:15:24;26.70;56.80
63313;DHT22;49442;45.640;13.812;2022-07-23T01:17:50;26.70;56.80
63313;DHT22;49442;45.640;13.812;2022-07-23T01:20:16;26.70;56.80
63313;DHT22;49442;45.640;13.812;2022-07-23T01:22:42;26.70;56.70
63313;DHT22;49442;45.640;13.812;2022-07-23T01:25:08;26.70;56.80
63313;DHT22;49442;45.640;13.812;2022-07-23T01:27:34;26.70;56.90
63313;DHT22;49442;45.640;13.812;2022-07-23T01:30:01;26.70;56.90
63313;DHT22;49442;45.640;13.812;2022-07-23T01:32:26;26.70;56.70
63313;DHT22;49442;45.640;13.812;2022-07-23T01:34:52;26.80;56.80
63313;DHT22;49442;45.640;13.812;2022-07-23T01:37:21;26.70;56.80
63313;DHT22;49442;45.640;13.812;2022-07-23T01:39:46;26.70;56.80
63313;DHT22;49442;45.640;13.812;2022-07-23T01:42:12;26.70;56.90
63313;DHT22;49442;45.640;13.812;2022-07-23T01:44:38;26.70;57.10
63313;DHT22;49442;45.640;13.812;2022-07-23T01:47:06;26.70;57.10
63313;DHT22;49442;45.640;13.812;2022-07-23T01:49:32;26.60;57.10
63313;DHT22;49442;45.640;13.812;2022-07-23T01:51:58;26.60;57.10
63313;DHT22;49442;45.640;13.812;2022-07-23T01:54:30;26.60;57.10
63313;DHT22;49442;45.640;13.812;2022-07-23T01:56:57;26.60;57.10
63313;DHT22;49442;45.640;13.812;2022-07-23T01:59:24;26.50;57.10
63313;DHT22;49442;45.640;13.812;2022-07-23T02:01:50;26.50;57.10
63313;DHT22;49442;45.640;13.812;2022-07-23T02:04:20;26.50;57.10
63313;DHT22;49442;45.640;13.812;2022-07-23T02:06:47;26.50;57.00
63313;DHT22;49442;45.640;13.812;2022-07-23T02:09:16;26.50;57.00
63313;DHT22;49442;45.640;13.812;2022-07-23T02:11:42;26.50;57.00
63313;DHT22;49442;45.640;13.812;2022-07-23T02:14:08;26.50;57.00
63313;DHT22;49442;45.640;13.812;2022-07-23T02:16:34;26.50;57.10
63313;DHT22;49442;45.640;13.812;2022-07-23T02:18:59;26.50;57.20
63313;DHT22;49442;45.640;13.812;2022-07-23T02:21:25;26.50;57.20
63313;DHT22;49442;45.640;13.812;2022-07-23T02:23:51;26.50;57.30
63313;DHT22;49442;45.640;13.812;2022-07-23T02:26:19;26.50;57.20
63313;DHT22;49442;45.640;13.812;2022-07-23T02:28:45;26.50;57.40
63313;DHT22;49442;45.640;13.812;2022-07-23T02:31:10;26.50;57.40
63313;DHT22;49442;45.640;13.812;2022-07-23T02:33:39;26.50;57.30
63313;DHT22;49442;45.640;13.812;2022-07-23T02:36:05;26.50;57.30
63313;DHT22;49442;45.640;13.812;2022-07-23T02:38:30;26.40;57.30
63313;DHT22;49442;45.640;13.812;2022-07-23T02:40:56;26.40;57.50
63313;DHT22;49442;45.640;13.812;2022-07-23T02:43:25;26.40;57.50
63313;DHT22;49442;45.640;13.812;2022-07-23T02:45:50;26.40;57.60
63313;DHT22;49442;45.640;13.812;2022-07-23T02:48:16;26.40;57.40
63313;DHT22;49442;45.640;13.812;2022-07-23T02:50:42;26.30;57.50
63313;DHT22;49442;45.640;13.812;2022-07-23T02:53:07;26.30;57.20
63313;DHT22;49442;45.640;13.812;2022-07-23T02:55:33;26.30;57.40
63313;DHT22;49442;45.640;13.812;2022-07-23T02:57:59;26.20;57.50
63313;DHT22;49442;45.640;13.812;2022-07-23T03:00:25;26.20;57.60
63313;DHT22;49442;45.640;13.812;2022-07-23T03:02:50;26.20;57.60
63313;DHT22;49442;45.640;13.812;2022-07-23T03:05:16;26.10;58.00
63313;DHT22;49442;45.640;13.812;2022-07-23T03:07:42;26.10;57.50
63313;DHT22;49442;45.640;13.812;2022-07-23T03:10:08;26.10;57.70
63313;DHT22;49442;45.640;13.812;2022-07-23T03:12:33;26.10;57.70
63313;DHT22;49442;45.640;13.812;2022-07-23T03:14:59;26.10;57.80
63313;DHT22;49442;45.640;13.812;2022-07-23T03:17:25;26.00;57.80
63313;DHT22;49442;45.640;13.812;2022-07-23T03:19:50;26.00;57.80
63313;DHT22;49442;45.640;13.812;2022-07-23T03:22:16;26.10;57.80
63313;DHT22;49442;45.640;13.812;2022-07-23T03:24:42;26.10;57.70
63313;DHT22;49442;45.640;13.812;2022-07-23T03:27:21;26.20;57.60
63313;DHT22;49442;45.640;13.812;2022-07-23T03:29:46;26.20;57.60
63313;DHT22;49442;45.640;13.812;2022-07-23T03:32:12;26.20;57.70
63313;DHT22;49442;45.640;13.812;2022-07-23T03:34:38;26.20;57.80
63313;DHT22;49442;45.640;13.812;2022-07-23T03:37:04;26.10;57.70
63313;DHT22;49442;45.640;13.812;2022-07-23T03:39:29;26.10;57.70
63313;DHT22;49442;45.640;13.812;2022-07-23T03:41:55;26.10;57.80
63313;DHT22;49442;45.640;13.812;2022-07-23T03:44:21;26.10;58.10
63313;DHT22;49442;45.640;13.812;2022-07-23T03:46:47;26.00;57.90
63313;DHT22;49442;45.640;13.812;2022-07-23T03:49:13;26.00;58.00
63313;DHT22;49442;45.640;13.812;2022-07-23T03:51:38;26.00;58.10
63313;DHT22;49442;45.640;13.812;2022-07-23T03:54:04;26.00;58.20
63313;DHT22;49442;45.640;13.812;2022-07-23T03:56:30;26.00;58.30
63313;DHT22;49442;45.640;13.812;2022-07-23T03:58:56;25.90;58.20
63313;DHT22;49442;45.640;13.812;2022-07-23T04:01:22;25.90;58.20
63313;DHT22;49442;45.640;13.812;2022-07-23T04:03:47;25.90;58.30
63313;DHT22;49442;45.640;13.812;2022-07-23T04:06:13;25.90;58.30
63313;DHT22;49442;45.640;13.812;2022-07-23T04:08:41;25.90;58.30
63313;DHT22;49442;45.640;13.812;2022-07-23T04:11:07;25.90;58.20
63313;DHT22;49442;45.640;13.812;2022-07-23T04:13:33;25.90;58.20
63313;DHT22;49442;45.640;13.812;2022-07-23T04:15:58;26.00;58.30
63313;DHT22;49442;45.640;13.812;2022-07-23T04:18:24;25.90;58.10
63313;DHT22;49442;45.640;13.812;2022-07-23T04:20:53;26.00;58.20
63313;DHT22;49442;45.640;13.812;2022-07-23T04:23:19;26.00;58.00
63313;DHT22;49442;45.640;13.812;2022-07-23T04:25:45;26.00;57.90
63313;DHT22;49442;45.640;13.812;2022-07-23T04:28:10;26.00;57.90
63313;DHT22;49442;45.640;13.812;2022-07-23T04:30:36;26.10;57.90
63313;DHT22;49442;45.640;13.812;2022-07-23T04:33:02;26.10;57.90
63313;DHT22;49442;45.640;13.812;2022-07-23T04:35:31;26.10;58.00
63313;DHT22;49442;45.640;13.812;2022-07-23T04:37:56;26.10;57.80
63313;DHT22;49442;45.640;13.812;2022-07-23T04:40:22;26.10;57.80
63313;DHT22;49442;45.640;13.812;2022-07-23T04:42:48;26.20;57.70
63313;DHT22;49442;45.640;13.812;2022-07-23T04:45:13;26.20;57.90
63313;DHT22;49442;45.640;13.812;2022-07-23T04:47:39;26.20;57.80
63313;DHT22;49442;45.640;13.812;2022-07-23T04:50:05;26.20;57.90
63313;DHT22;49442;45.640;13.812;2022-07-23T04:52:30;26.20;58.40
63313;DHT22;49442;45.640;13.812;2022-07-23T04:54:56;26.20;57.90
63313;DHT22;49442;45.640;13.812;2022-07-23T04:57:22;26.20;57.50
63313;DHT22;49442;45.640;13.812;2022-07-23T04:59:47;26.30;57.70
63313;DHT22;49442;45.640;13.812;2022-07-23T05:02:13;26.30;57.90
63313;DHT22;49442;45.640;13.812;2022-07-23T05:04:39;26.30;57.90
63313;DHT22;49442;45.640;13.812;2022-07-23T05:07:04;26.30;58.00
63313;DHT22;49442;45.640;13.812;2022-07-23T05:09:30;26.30;58.00
63313;DHT22;49442;45.640;13.812;2022-07-23T05:11:56;26.40;58.10
63313;DHT22;49442;45.640;13.812;2022-07-23T05:14:21;26.40;58.00
63313;DHT22;49442;45.640;13.812;2022-07-23T05:16:47;26.40;58.10
63313;DHT22;49442;45.640;13.812;2022-07-23T05:19:13;26.50;58.20
63313;DHT22;49442;45.640;13.812;2022-07-23T05:21:39;26.50;58.10
63313;DHT22;49442;45.640;13.812;2022-07-23T05:24:05;26.50;58.20
63313;DHT22;49442;45.640;13.812;2022-07-23T05:26:31;26.60;58.20
63313;DHT22;49442;45.640;13.812;2022-07-23T05:28:57;26.60;58.20
63313;DHT22;49442;45.640;13.812;2022-07-23T05:31:22;26.70;58.40
63313;DHT22;49442;45.640;13.812;2022-07-23T05:33:48;26.70;58.30
63313;DHT22;49442;45.640;13.812;2022-07-23T05:36:14;26.80;58.20
63313;DHT22;49442;45.640;13.812;2022-07-23T05:38:40;26.90;58.50
63313;DHT22;49442;45.640;13.812;2022-07-23T05:41:08;26.90;58.50
63313;DHT22;49442;45.640;13.812;2022-07-23T05:43:34;27.00;59.10
63313;DHT22;49442;45.640;13.812;2022-07-23T05:46:00;27.00;58.70
63313;DHT22;49442;45.640;13.812;2022-07-23T05:48:25;27.10;58.80
63313;DHT22;49442;45.640;13.812;2022-07-23T05:50:51;27.20;58.80
63313;DHT22;49442;45.640;13.812;2022-07-23T05:53:17;27.30;58.70
63313;DHT22;49442;45.640;13.812;2022-07-23T05:55:43;27.40;58.60
63313;DHT22;49442;45.640;13.812;2022-07-23T05:58:09;27.40;58.80
63313;DHT22;49442;45.640;13.812;2022-07-23T06:00:34;27.50;58.50
63313;DHT22;49442;45.640;13.812;2022-07-23T06:03:00;27.60;58.70
63313;DHT22;49442;45.640;13.812;2022-07-23T06:05:26;27.70;58.80
63313;DHT22;49442;45.640;13.812;2022-07-23T06:07:55;27.80;58.00
63313;DHT22;49442;45.640;13.812;2022-07-23T06:10:20;27.90;57.40
63313;DHT22;49442;45.640;13.812;2022-07-23T06:12:46;28.10;57.80
63313;DHT22;49442;45.640;13.812;2022-07-23T06:15:12;28.20;56.80
63313;DHT22;49442;45.640;13.812;2022-07-23T06:17:39;28.30;56.80
63313;DHT22;49442;45.640;13.812;2022-07-23T06:20:09;28.40;56.50
63313;DHT22;49442;45.640;13.812;2022-07-23T06:22:36;28.50;57.50
63313;DHT22;49442;45.640;13.812;2022-07-23T06:25:02;28.60;57.70
63313;DHT22;49442;45.640;13.812;2022-07-23T06:27:28;28.70;57.70
63313;DHT22;49442;45.640;13.812;2022-07-23T06:29:54;28.80;57.00
63313;DHT22;49442;45.640;13.812;2022-07-23T06:32:20;28.90;57.00
63313;DHT22;49442;45.640;13.812;2022-07-23T06:34:45;28.90;57.30
63313;DHT22;49442;45.640;13.812;2022-07-23T06:37:11;29.00;57.90
63313;DHT22;49442;45.640;13.812;2022-07-23T06:39:37;29.10;57.20
63313;DHT22;49442;45.640;13.812;2022-07-23T06:42:03;29.10;57.60
63313;DHT22;49442;45.640;13.812;2022-07-23T06:44:28;29.20;57.50
63313;DHT22;49442;45.640;13.812;2022-07-23T06:46:54;29.30;56.60
63313;DHT22;49442;45.640;13.812;2022-07-23T06:49:20;29.30;56.50
63313;DHT22;49442;45.640;13.812;2022-07-23T06:51:46;29.40;56.30
63313;DHT22;49442;45.640;13.812;2022-07-23T06:54:11;29.50;56.00
63313;DHT22;49442;45.640;13.812;2022-07-23T06:56:37;29.50;56.00
63313;DHT22;49442;45.640;13.812;2022-07-23T06:59:03;29.60;55.80
63313;DHT22;49442;45.640;13.812;2022-07-23T07:01:29;29.70;56.30
63313;DHT22;49442;45.640;13.812;2022-07-23T07:03:54;29.70;55.60
63313;DHT22;49442;45.640;13.812;2022-07-23T07:06:20;29.80;56.70
63313;DHT22;49442;45.640;13.812;2022-07-23T07:08:46;29.80;57.80
63313;DHT22;49442;45.640;13.812;2022-07-23T07:11:12;29.90;59.00
63313;DHT22;49442;45.640;13.812;2022-07-23T07:13:38;30.10;58.00
63313;DHT22;49442;45.640;13.812;2022-07-23T07:16:04;30.10;57.20
63313;DHT22;49442;45.640;13.812;2022-07-23T07:18:30;30.20;57.40
63313;DHT22;49442;45.640;13.812;2022-07-23T07:20:57;30.20;57.40
63313;DHT22;49442;45.640;13.812;2022-07-23T07:23:23;30.30;57.60
63313;DHT22;49442;45.640;13.812;2022-07-23T07:25:48;30.30;55.70
63313;DHT22;49442;45.640;13.812;2022-07-23T07:28:14;30.40;55.40
63313;DHT22;49442;45.640;13.812;2022-07-23T07:30:40;30.40;55.40
63313;DHT22;49442;45.640;13.812;2022-07-23T07:33:06;30.40;55.30
63313;DHT22;49442;45.640;13.812;2022-07-23T07:35:32;30.50;55.40
63313;DHT22;49442;45.640;13.812;2022-07-23T07:37:58;30.50;55.70
63313;DHT22;49442;45.640;13.812;2022-07-23T07:40:24;30.50;57.00
63313;DHT22;49442;45.640;13.812;2022-07-23T07:42:52;30.50;58.00
63313;DHT22;49442;45.640;13.812;2022-07-23T07:45:22;30.60;57.00
63313;DHT22;49442;45.640;13.812;2022-07-23T07:47:48;30.60;57.90
63313;DHT22;49442;45.640;13.812;2022-07-23T07:50:14;30.60;58.50
63313;DHT22;49442;45.640;13.812;2022-07-23T07:52:40;30.60;58.80
63313;DHT22;49442;45.640;13.812;2022-07-23T07:55:07;30.60;59.40
63313;DHT22;49442;45.640;13.812;2022-07-23T07:57:34;30.60;58.60
63313;DHT22;49442;45.640;13.812;2022-07-23T07:59:59;30.60;56.90
63313;DHT22;49442;45.640;13.812;2022-07-23T08:02:25;30.70;57.20
63313;DHT22;49442;45.640;13.812;2022-07-23T08:04:51;30.70;57.10
63313;DHT22;49442;45.640;13.812;2022-07-23T08:07:17;30.70;55.30
63313;DHT22;49442;45.640;13.812;2022-07-23T08:09:42;30.70;53.90
63313;DHT22;49442;45.640;13.812;2022-07-23T08:12:08;30.70;52.60
63313;DHT22;49442;45.640;13.812;2022-07-23T08:14:34;30.70;52.10
63313;DHT22;49442;45.640;13.812;2022-07-23T08:17:00;30.70;53.30
63313;DHT22;49442;45.640;13.812;2022-07-23T08:19:25;30.70;54.10
63313;DHT22;49442;45.640;13.812;2022-07-23T08:21:51;30.70;54.90
63313;DHT22;49442;45.640;13.812;2022-07-23T08:24:17;30.70;54.90
63313;DHT22;49442;45.640;13.812;2022-07-23T08:26:42;30.80;54.30
63313;DHT22;49442;45.640;13.812;2022-07-23T08:29:08;30.90;52.60
63313;DHT22;49442;45.640;13.812;2022-07-23T08:31:34;30.90;52.50
63313;DHT22;49442;45.640;13.812;2022-07-23T08:34:00;31.00;52.90
63313;DHT22;49442;45.640;13.812;2022-07-23T08:36:25;31.00;52.70
63313;DHT22;49442;45.640;13.812;2022-07-23T08:38:58;31.10;52.90
63313;DHT22;49442;45.640;13.812;2022-07-23T08:41:24;31.20;52.90
63313;DHT22;49442;45.640;13.812;2022-07-23T08:43:53;31.20;52.40
63313;DHT22;49442;45.640;13.812;2022-07-23T08:46:19;31.30;52.10
63313;DHT22;49442;45.640;13.812;2022-07-23T08:48:48;31.40;52.40
63313;DHT22;49442;45.640;13.812;2022-07-23T08:51:14;31.50;53.10
63313;DHT22;49442;45.640;13.812;2022-07-23T08:53:40;31.50;52.30
63313;DHT22;49442;45.640;13.812;2022-07-23T08:56:07;31.50;52.30
63313;DHT22;49442;45.640;13.812;2022-07-23T08:58:33;31.70;51.60
63313;DHT22;49442;45.640;13.812;2022-07-23T09:01:00;31.70;51.60
63313;DHT22;49442;45.640;13.812;2022-07-23T09:03:29;31.80;51.40
63313;DHT22;49442;45.640;13.812;2022-07-23T09:05:57;31.80;51.10
63313;DHT22;49442;45.640;13.812;2022-07-23T09:08:25;31.90;51.50
63313;DHT22;49442;45.640;13.812;2022-07-23T09:10:58;31.90;51.40
63313;DHT22;49442;45.640;13.812;2022-07-23T09:16:11;31.90;51.40
63313;DHT22;49442;45.640;13.812;2022-07-23T09:18:46;31.90;51.80
63313;DHT22;49442;45.640;13.812;2022-07-23T09:23:50;32.00;51.70
63313;DHT22;49442;45.640;13.812;2022-07-23T09:31:50;32.20;50.20
63313;DHT22;49442;45.640;13.812;2022-07-23T09:34:25;32.20;50.00
63313;DHT22;49442;45.640;13.812;2022-07-23T09:36:57;32.40;49.90
63313;DHT22;49442;45.640;13.812;2022-07-23T09:39:30;32.50;50.00
63313;DHT22;49442;45.640;13.812;2022-07-23T09:41:56;32.50;50.00
63313;DHT22;49442;45.640;13.812;2022-07-23T09:44:23;32.60;49.80
63313;DHT22;49442;45.640;13.812;2022-07-23T09:46:50;32.70;50.20
63313;DHT22;49442;45.640;13.812;2022-07-23T09:49:21;32.80;49.80
63313;DHT22;49442;45.640;13.812;2022-07-23T09:52:00;32.80;49.00
63313;DHT22;49442;45.640;13.812;2022-07-23T09:56:59;33.00;48.60
63313;DHT22;49442;45.640;13.812;2022-07-23T09:59:28;33.00;47.80
63313;DHT22;49442;45.640;13.812;2022-07-23T10:01:56;33.10;47.90
63313;DHT22;49442;45.640;13.812;2022-07-23T10:04:24;33.10;48.30
63313;DHT22;49442;45.640;13.812;2022-07-23T10:06:54;33.20;48.30
63313;DHT22;49442;45.640;13.812;2022-07-23T10:09:29;33.30;47.70
63313;DHT22;49442;45.640;13.812;2022-07-23T10:11:58;33.30;47.30
63313;DHT22;49442;45.640;13.812;2022-07-23T10:14:46;33.40;46.30
63313;DHT22;49442;45.640;13.812;2022-07-23T10:17:12;33.40;46.70
63313;DHT22;49442;45.640;13.812;2022-07-23T10:19:38;33.40;47.20
63313;DHT22;49442;45.640;13.812;2022-07-23T10:38:25;33.40;46.10
63313;DHT22;49442;45.640;13.812;2022-07-23T10:41:04;33.30;45.80
63313;DHT22;49442;45.640;13.812;2022-07-23T10:43:33;33.30;46.10
63313;DHT22;49442;45.640;13.812;2022-07-23T10:46:24;33.30;45.60
63313;DHT22;49442;45.640;13.812;2022-07-23T10:49:26;33.20;46.10
63313;DHT22;49442;45.640;13.812;2022-07-23T10:54:48;33.20;45.30
63313;DHT22;49442;45.640;13.812;2022-07-23T10:57:15;33.10;46.80
63313;DHT22;49442;45.640;13.812;2022-07-23T11:02:28;33.20;46.00
63313;DHT22;49442;45.640;13.812;2022-07-23T11:04:58;33.20;46.10
63313;DHT22;49442;45.640;13.812;2022-07-23T11:07:24;33.20;46.10
63313;DHT22;49442;45.640;13.812;2022-07-23T11:09:50;33.30;46.10
63313;DHT22;49442;45.640;13.812;2022-07-23T11:15:10;33.30;46.00
63313;DHT22;49442;45.640;13.812;2022-07-23T11:17:59;33.40;46.10
63313;DHT22;49442;45.640;13.812;2022-07-23T11:20:28;33.40;45.60
63313;DHT22;49442;45.640;13.812;2022-07-23T11:22:58;33.40;46.00
63313;DHT22;49442;45.640;13.812;2022-07-23T11:27:51;33.40;46.40
63313;DHT22;49442;45.640;13.812;2022-07-23T11:32:53;33.40;46.30
63313;DHT22;49442;45.640;13.812;2022-07-23T11:35:28;33.50;46.60
63313;DHT22;49442;45.640;13.812;2022-07-23T11:38:04;33.60;46.20
63313;DHT22;49442;45.640;13.812;2022-07-23T11:40:30;33.70;46.60
63313;DHT22;49442;45.640;13.812;2022-07-23T11:42:59;33.70;45.50
63313;DHT22;49442;45.640;13.812;2022-07-23T11:45:33;33.80;46.80
63313;DHT22;49442;45.640;13.812;2022-07-23T11:47:59;33.80;46.80
63313;DHT22;49442;45.640;13.812;2022-07-23T11:50:26;33.80;47.20
63313;DHT22;49442;45.640;13.812;2022-07-23T11:52:53;33.90;46.60
63313;DHT22;49442;45.640;13.812;2022-07-23T11:55:19;33.90;46.30
63313;DHT22;49442;45.640;13.812;2022-07-23T11:57:45;33.90;45.60
63313;DHT22;49442;45.640;13.812;2022-07-23T12:00:17;33.90;45.70
63313;DHT22;49442;45.640;13.812;2022-07-23T12:02:45;33.70;46.00
63313;DHT22;49442;45.640;13.812;2022-07-23T12:05:16;33.70;46.20
63313;DHT22;49442;45.640;13.812;2022-07-23T12:07:44;33.70;46.60
63313;DHT22;49442;45.640;13.812;2022-07-23T12:10:30;33.70;46.10
63313;DHT22;49442;45.640;13.812;2022-07-23T12:13:04;33.70;46.60
63313;DHT22;49442;45.640;13.812;2022-07-23T12:15:52;33.70;47.10
63313;DHT22;49442;45.640;13.812;2022-07-23T12:18:24;33.70;46.60
63313;DHT22;49442;45.640;13.812;2022-07-23T12:20:55;33.70;47.50
63313;DHT22;49442;45.640;13.812;2022-07-23T12:23:23;33.70;46.50
63313;DHT22;49442;45.640;13.812;2022-07-23T12:25:50;33.60;47.50
63313;DHT22;49442;45.640;13.812;2022-07-23T12:28:17;33.60;46.60
63313;DHT22;49442;45.640;13.812;2022-07-23T12:30:44;33.70;46.50
63313;DHT22;49442;45.640;13.812;2022-07-23T12:33:15;33.60;46.50
63313;DHT22;49442;45.640;13.812;2022-07-23T12:35:46;33.60;46.00
63313;DHT22;49442;45.640;13.812;2022-07-23T12:38:12;33.50;45.80
63313;DHT22;49442;45.640;13.812;2022-07-23T12:43:11;33.40;45.50
63313;DHT22;49442;45.640;13.812;2022-07-23T12:50:43;33.30;45.50
63313;DHT22;49442;45.640;13.812;2022-07-23T12:53:11;33.30;44.60
63313;DHT22;49442;45.640;13.812;2022-07-23T12:55:39;33.30;44.40
63313;DHT22;49442;45.640;13.812;2022-07-23T12:58:07;33.30;45.50
63313;DHT22;49442;45.640;13.812;2022-07-23T13:00:58;33.30;45.70
63313;DHT22;49442;45.640;13.812;2022-07-23T13:06:05;33.30;45.50
63313;DHT22;49442;45.640;13.812;2022-07-23T13:08:33;33.40;45.80
63313;DHT22;49442;45.640;13.812;2022-07-23T13:11:00;33.40;45.20
63313;DHT22;49442;45.640;13.812;2022-07-23T13:13:28;33.40;46.00
63313;DHT22;49442;45.640;13.812;2022-07-23T13:15:54;33.50;45.60
63313;DHT22;49442;45.640;13.812;2022-07-23T13:18:21;33.50;45.70
63313;DHT22;49442;45.640;13.812;2022-07-23T13:20:47;33.50;45.60
63313;DHT22;49442;45.640;13.812;2022-07-23T13:23:14;33.50;46.70
63313;DHT22;49442;45.640;13.812;2022-07-23T13:25:43;33.50;46.60
63313;DHT22;49442;45.640;13.812;2022-07-23T13:28:09;33.50;46.70
63313;DHT22;49442;45.640;13.812;2022-07-23T13:30:35;33.60;46.10
63313;DHT22;49442;45.640;13.812;2022-07-23T13:33:03;33.50;45.00
63313;DHT22;49442;45.640;13.812;2022-07-23T13:35:29;33.60;46.60
63313;DHT22;49442;45.640;13.812;2022-07-23T13:37:55;33.60;45.60
63313;DHT22;49442;45.640;13.812;2022-07-23T13:40:21;33.60;46.40
63313;DHT22;49442;45.640;13.812;2022-07-23T13:42:47;33.60;45.40
63313;DHT22;49442;45.640;13.812;2022-07-23T13:45:15;33.60;45.80
63313;DHT22;49442;45.640;13.812;2022-07-23T13:47:40;33.60;46.00
63313;DHT22;49442;45.640;13.812;2022-07-23T13:50:06;33.60;46.30
63313;DHT22;49442;45.640;13.812;2022-07-23T13:52:32;33.60;47.20
63313;DHT22;49442;45.640;13.812;2022-07-23T13:55:05;33.70;46.70
63313;DHT22;49442;45.640;13.812;2022-07-23T13:57:31;33.80;47.50
63313;DHT22;49442;45.640;13.812;2022-07-23T13:59:57;33.80;47.40
63313;DHT22;49442;45.640;13.812;2022-07-23T14:02:23;33.80;47.80
63313;DHT22;49442;45.640;13.812;2022-07-23T14:04:49;33.90;47.60
63313;DHT22;49442;45.640;13.812;2022-07-23T14:07:16;33.90;48.80
63313;DHT22;49442;45.640;13.812;2022-07-23T14:09:42;33.90;48.30
63313;DHT22;49442;45.640;13.812;2022-07-23T14:12:08;33.90;48.50
63313;DHT22;49442;45.640;13.812;2022-07-23T14:14:34;33.90;48.60
63313;DHT22;49442;45.640;13.812;2022-07-23T14:17:00;33.90;47.70
63313;DHT22;49442;45.640;13.812;2022-07-23T14:19:26;33.90;47.90
63313;DHT22;49442;45.640;13.812;2022-07-23T14:21:52;33.90;46.10
63313;DHT22;49442;45.640;13.812;2022-07-23T14:24:17;34.00;47.30
63313;DHT22;49442;45.640;13.812;2022-07-23T14:26:43;33.90;47.00
63313;DHT22;49442;45.640;13.812;2022-07-23T14:29:09;33.90;44.60
63313;DHT22;49442;45.640;13.812;2022-07-23T14:31:35;34.00;45.70
63313;DHT22;49442;45.640;13.812;2022-07-23T14:34:01;33.90;45.70
63313;DHT22;49442;45.640;13.812;2022-07-23T14:36:27;33.90;45.00
63313;DHT22;49442;45.640;13.812;2022-07-23T14:38:53;33.90;44.20
63313;DHT22;49442;45.640;13.812;2022-07-23T14:41:19;33.90;45.50
63313;DHT22;49442;45.640;13.812;2022-07-23T14:43:44;33.90;43.10
63313;DHT22;49442;45.640;13.812;2022-07-23T14:46:11;33.90;43.60
63313;DHT22;49442;45.640;13.812;2022-07-23T14:48:37;33.80;40.40
63313;DHT22;49442;45.640;13.812;2022-07-23T14:51:03;33.80;46.00
63313;DHT22;49442;45.640;13.812;2022-07-23T14:53:29;33.70;46.40
63313;DHT22;49442;45.640;13.812;2022-07-23T14:55:55;33.80;48.30
63313;DHT22;49442;45.640;13.812;2022-07-23T14:58:23;33.80;50.10
63313;DHT22;49442;45.640;13.812;2022-07-23T15:00:48;33.80;48.00
63313;DHT22;49442;45.640;13.812;2022-07-23T15:03:14;33.90;44.90
63313;DHT22;49442;45.640;13.812;2022-07-23T15:05:40;33.80;44.00
63313;DHT22;49442;45.640;13.812;2022-07-23T15:08:06;33.80;44.80
63313;DHT22;49442;45.640;13.812;2022-07-23T15:10:32;33.80;45.20
63313;DHT22;49442;45.640;13.812;2022-07-23T15:12:57;33.80;44.30
63313;DHT22;49442;45.640;13.812;2022-07-23T15:15:23;33.90;43.50
63313;DHT22;49442;45.640;13.812;2022-07-23T15:17:49;33.90;41.30
63313;DHT22;49442;45.640;13.812;2022-07-23T15:20:14;33.80;44.60
63313;DHT22;49442;45.640;13.812;2022-07-23T15:22:40;33.80;44.60
63313;DHT22;49442;45.640;13.812;2022-07-23T15:25:07;33.80;48.90
63313;DHT22;49442;45.640;13.812;2022-07-23T15:27:33;33.80;49.00
63313;DHT22;49442;45.640;13.812;2022-07-23T15:29:58;33.80;50.20
63313;DHT22;49442;45.640;13.812;2022-07-23T15:32:24;33.80;52.30
63313;DHT22;49442;45.640;13.812;2022-07-23T15:34:55;33.80;54.70
63313;DHT22;49442;45.640;13.812;2022-07-23T15:37:21;33.80;54.00
63313;DHT22;49442;45.640;13.812;2022-07-23T15:39:51;33.80;53.00
63313;DHT22;49442;45.640;13.812;2022-07-23T15:42:17;33.80;56.60
63313;DHT22;49442;45.640;13.812;2022-07-23T15:44:43;33.70;56.80
63313;DHT22;49442;45.640;13.812;2022-07-23T15:47:14;33.70;58.10
63313;DHT22;49442;45.640;13.812;2022-07-23T15:49:40;33.60;57.20
63313;DHT22;49442;45.640;13.812;2022-07-23T15:52:06;33.60;57.40
63313;DHT22;49442;45.640;13.812;2022-07-23T15:54:35;33.60;58.50
63313;DHT22;49442;45.640;13.812;2022-07-23T15:57:03;33.70;57.40
63313;DHT22;49442;45.640;13.812;2022-07-23T15:59:30;33.60;57.10
63313;DHT22;49442;45.640;13.812;2022-07-23T16:01:56;33.60;58.90
63313;DHT22;49442;45.640;13.812;2022-07-23T16:04:22;33.50;58.70
63313;DHT22;49442;45.640;13.812;2022-07-23T16:06:48;33.50;60.80
63313;DHT22;49442;45.640;13.812;2022-07-23T16:09:13;33.40;63.50